sensor_id;sensor_type;location;lat;lon;timestamp;pressure;altitude;pressure_sealevel;temperature;humidity
70437;BME280;57877;39.750;-104.894;2024-01-30T00:00:32;84382.45;;;13.30;18.92
70437;BME280;57877;39.750;-104.894;2024-01-30T00:02:57;84381.07;;;13.62;18.57
70437;BME280;57877;39.750;-104.894;2024-01-30T00:05:22;84383.97;;;14.12;18.43
70437;BME280;57877;39.750;-104.894;2024-01-30T00:07:47;84385.69;;;13.72;18.37
70437;BME280;57877;39.750;-104.894;2024-01-30T00:10:12;84389.09;;;13.90;18.39
70437;BME280;57877;39.750;-104.894;2024-01-30T00:12:37;84390.91;;;13.63;18.51
70437;BME280;57877;39.750;-104.894;2024-01-30T00:15:02;84393.62;;;13.69;18.67
70437;BME280;57877;39.750;-104.894;2024-01-30T00:17:27;84396.99;;;13.35;18.73
70437;BME280;57877;39.750;-104.894;2024-01-30T00:19:52;84401.16;;;13.52;18.89
70437;BME280;57877;39.750;-104.894;2024-01-30T00:22:17;84404.38;;;13.58;18.92
70437;BME280;57877;39.750;-104.894;2024-01-30T00:24:43;84408.85;;;13.12;19.35
70437;BME280;57877;39.750;-104.894;2024-01-30T00:27:08;84409.92;;;13.02;19.35
70437;BME280;57877;39.750;-104.894;2024-01-30T00:29:33;84416.58;;;12.86;19.55
70437;BME280;57877;39.750;-104.894;2024-01-30T00:31:58;84417.90;;;13.04;19.79
70437;BME280;57877;39.750;-104.894;2024-01-30T00:34:23;84421.81;;;12.70;20.12
70437;BME280;57877;39.750;-104.894;2024-01-30T00:36:48;84422.86;;;12.54;20.36
70437;BME280;57877;39.750;-104.894;2024-01-30T00:39:13;84425.58;;;12.96;20.55
70437;BME280;57877;39.750;-104.894;2024-01-30T00:41:38;84430.71;;;12.92;20.76
70437;BME280;57877;39.750;-104.894;2024-01-30T00:44:03;84438.42;;;12.82;20.82
70437;BME280;57877;39.750;-104.894;2024-01-30T00:46:28;84440.62;;;12.63;20.98
70437;BME280;57877;39.750;-104.894;2024-01-30T00:48:53;84442.85;;;12.51;21.29
70437;BME280;57877;39.750;-104.894;2024-01-30T00:51:18;84446.88;;;12.41;21.41
70437;BME280;57877;39.750;-104.894;2024-01-30T00:53:43;84450.11;;;12.20;21.52
70437;BME280;57877;39.750;-104.894;2024-01-30T00:56:08;84454.63;;;12.17;22.23
70437;BME280;57877;39.750;-104.894;2024-01-30T00:58:34;84459.81;;;12.28;22.47
70437;BME280;57877;39.750;-104.894;2024-01-30T01:00:59;84464.62;;;12.00;22.54
70437;BME280;57877;39.750;-104.894;2024-01-30T01:03:24;84466.47;;;12.18;22.69
70437;BME280;57877;39.750;-104.894;2024-01-30T01:05:49;84468.33;;;11.63;22.68
70437;BME280;57877;39.750;-104.894;2024-01-30T01:08:14;84469.45;;;11.84;22.97
70437;BME280;57877;39.750;-104.894;2024-01-30T01:10:39;84471.56;;;11.47;23.54
70437;BME280;57877;39.750;-104.894;2024-01-30T01:13:04;84471.16;;;11.46;24.15
70437;BME280;57877;39.750;-104.894;2024-01-30T01:15:29;84476.82;;;11.05;24.49
70437;BME280;57877;39.750;-104.894;2024-01-30T01:17:54;84481.72;;;11.70;24.45
70437;BME280;57877;39.750;-104.894;2024-01-30T01:20:19;84487.96;;;11.50;24.79
70437;BME280;57877;39.750;-104.894;2024-01-30T01:22:45;84488.53;;;11.08;24.77
70437;BME280;57877;39.750;-104.894;2024-01-30T01:25:10;84491.78;;;11.31;24.91
70437;BME280;57877;39.750;-104.894;2024-01-30T01:27:35;84494.78;;;11.49;25.12
70437;BME280;57877;39.750;-104.894;2024-01-30T01:30:00;84495.42;;;11.42;25.13
70437;BME280;57877;39.750;-104.894;2024-01-30T01:32:25;84495.68;;;11.09;25.18
70437;BME280;57877;39.750;-104.894;2024-01-30T01:34:50;84495.18;;;11.24;25.30
70437;BME280;57877;39.750;-104.894;2024-01-30T01:37:15;84497.34;;;11.18;25.66
70437;BME280;57877;39.750;-104.894;2024-01-30T01:39:40;84497.47;;;11.12;25.67
70437;BME280;57877;39.750;-104.894;2024-01-30T01:42:05;84497.98;;;11.07;25.68
70437;BME280;57877;39.750;-104.894;2024-01-30T01:44:30;84499.31;;;10.71;25.89
70437;BME280;57877;39.750;-104.894;2024-01-30T01:46:57;84499.36;;;10.96;25.95
70437;BME280;57877;39.750;-104.894;2024-01-30T01:49:22;84499.94;;;10.64;25.94
70437;BME280;57877;39.750;-104.894;2024-01-30T01:51:46;84506.91;;;10.83;26.02
70437;BME280;57877;39.750;-104.894;2024-01-30T01:54:11;84513.15;;;10.69;26.07
70437;BME280;57877;39.750;-104.894;2024-01-30T01:56:36;84517.76;;;10.60;26.21
70437;BME280;57877;39.750;-104.894;2024-01-30T01:59:05;84521.64;;;10.54;26.32
70437;BME280;57877;39.750;-104.894;2024-01-30T02:01:26;84525.43;;;10.29;26.55
70437;BME280;57877;39.750;-104.894;2024-01-30T02:03:51;84531.91;;;10.40;26.42
70437;BME280;57877;39.750;-104.894;2024-01-30T02:06:16;84535.36;;;10.34;26.50
70437;BME280;57877;39.750;-104.894;2024-01-30T02:08:42;84534.37;;;10.46;26.67
70437;BME280;57877;39.750;-104.894;2024-01-30T02:11:06;84538.85;;;10.06;26.80
70437;BME280;57877;39.750;-104.894;2024-01-30T02:13:31;84541.95;;;10.30;26.77
70437;BME280;57877;39.750;-104.894;2024-01-30T02:15:56;84547.14;;;10.00;26.80
70437;BME280;57877;39.750;-104.894;2024-01-30T02:18:22;84545.23;;;9.86;26.88
70437;BME280;57877;39.750;-104.894;2024-01-30T02:20:47;84547.76;;;9.81;26.77
70437;BME280;57877;39.750;-104.894;2024-01-30T02:23:13;84547.75;;;9.98;26.95
70437;BME280;57877;39.750;-104.894;2024-01-30T02:25:39;84548.98;;;9.87;27.16
70437;BME280;57877;39.750;-104.894;2024-01-30T02:28:02;84549.56;;;9.92;27.21
70437;BME280;57877;39.750;-104.894;2024-01-30T02:30:27;84550.93;;;10.27;27.14
70437;BME280;57877;39.750;-104.894;2024-01-30T02:32:52;84550.63;;;9.87;27.47
70437;BME280;57877;39.750;-104.894;2024-01-30T02:35:17;84551.26;;;9.64;27.73
70437;BME280;57877;39.750;-104.894;2024-01-30T02:37:42;84548.77;;;9.34;27.86
70437;BME280;57877;39.750;-104.894;2024-01-30T02:40:08;84550.58;;;9.43;27.77
70437;BME280;57877;39.750;-104.894;2024-01-30T02:42:32;84553.90;;;9.72;27.65
70437;BME280;57877;39.750;-104.894;2024-01-30T02:44:57;84556.17;;;9.34;27.69
70437;BME280;57877;39.750;-104.894;2024-01-30T02:47:22;84559.89;;;9.61;27.61
70437;BME280;57877;39.750;-104.894;2024-01-30T02:49:47;84560.09;;;9.35;27.77
70437;BME280;57877;39.750;-104.894;2024-01-30T02:52:12;84562.30;;;9.32;27.72
70437;BME280;57877;39.750;-104.894;2024-01-30T02:54:37;84563.89;;;9.48;27.73
70437;BME280;57877;39.750;-104.894;2024-01-30T02:57:03;84565.39;;;9.46;27.70
70437;BME280;57877;39.750;-104.894;2024-01-30T02:59:28;84568.02;;;9.12;27.89
70437;BME280;57877;39.750;-104.894;2024-01-30T03:01:53;84571.74;;;9.28;27.82
70437;BME280;57877;39.750;-104.894;2024-01-30T03:04:18;84573.40;;;8.94;27.81
70437;BME280;57877;39.750;-104.894;2024-01-30T03:06:45;84577.41;;;8.98;28.19
70437;BME280;57877;39.750;-104.894;2024-01-30T03:09:09;84578.40;;;8.85;28.30
70437;BME280;57877;39.750;-104.894;2024-01-30T03:11:33;84581.78;;;8.81;28.37
70437;BME280;57877;39.750;-104.894;2024-01-30T03:13:58;84585.27;;;8.67;28.48
70437;BME280;57877;39.750;-104.894;2024-01-30T03:16:23;84587.53;;;8.83;28.42
70437;BME280;57877;39.750;-104.894;2024-01-30T03:18:48;84588.65;;;8.44;28.68
70437;BME280;57877;39.750;-104.894;2024-01-30T03:21:14;84594.44;;;8.41;28.74
70437;BME280;57877;39.750;-104.894;2024-01-30T03:23:39;84597.37;;;8.34;28.80
70437;BME280;57877;39.750;-104.894;2024-01-30T03:26:04;84599.68;;;8.44;28.91
70437;BME280;57877;39.750;-104.894;2024-01-30T03:28:29;84601.85;;;8.21;29.14
70437;BME280;57877;39.750;-104.894;2024-01-30T03:30:54;84605.56;;;8.26;29.36
70437;BME280;57877;39.750;-104.894;2024-01-30T03:33:19;84603.66;;;7.78;30.00
70437;BME280;57877;39.750;-104.894;2024-01-30T03:35:44;84603.90;;;7.48;29.93
70437;BME280;57877;39.750;-104.894;2024-01-30T03:38:09;84600.74;;;8.00;29.55
70437;BME280;57877;39.750;-104.894;2024-01-30T03:40:34;84601.71;;;7.37;30.02
70437;BME280;57877;39.750;-104.894;2024-01-30T03:43:00;84602.24;;;7.64;29.72
70437;BME280;57877;39.750;-104.894;2024-01-30T03:45:24;84602.09;;;8.02;29.73
70437;BME280;57877;39.750;-104.894;2024-01-30T03:47:50;84603.43;;;8.09;29.76
70437;BME280;57877;39.750;-104.894;2024-01-30T03:50:15;84605.81;;;7.43;29.88
70437;BME280;57877;39.750;-104.894;2024-01-30T03:52:39;84603.53;;;6.52;30.86
70437;BME280;57877;39.750;-104.894;2024-01-30T03:55:06;84601.75;;;6.98;30.52
70437;BME280;57877;39.750;-104.894;2024-01-30T03:57:30;84598.71;;;7.02;30.68
70437;BME280;57877;39.750;-104.894;2024-01-30T03:59:55;84599.17;;;6.96;30.45
70437;BME280;57877;39.750;-104.894;2024-01-30T04:02:22;84597.65;;;7.18;30.10
70437;BME280;57877;39.750;-104.894;2024-01-30T04:04:48;84593.11;;;6.95;30.08
70437;BME280;57877;39.750;-104.894;2024-01-30T04:07:14;84590.38;;;6.69;30.96
70437;BME280;57877;39.750;-104.894;2024-01-30T04:09:39;84587.55;;;6.24;31.57
70437;BME280;57877;39.750;-104.894;2024-01-30T04:12:04;84586.27;;;6.60;30.80
70437;BME280;57877;39.750;-104.894;2024-01-30T04:14:29;84586.92;;;6.42;31.34
70437;BME280;57877;39.750;-104.894;2024-01-30T04:16:55;84588.19;;;6.67;31.06
70437;BME280;57877;39.750;-104.894;2024-01-30T04:19:20;84589.48;;;6.67;31.09
70437;BME280;57877;39.750;-104.894;2024-01-30T04:21:45;84586.89;;;6.66;31.22
70437;BME280;57877;39.750;-104.894;2024-01-30T04:24:10;84584.63;;;6.45;31.42
70437;BME280;57877;39.750;-104.894;2024-01-30T04:26:35;84585.50;;;6.35;31.51
70437;BME280;57877;39.750;-104.894;2024-01-30T04:29:00;84585.82;;;6.57;31.26
70437;BME280;57877;39.750;-104.894;2024-01-30T04:31:25;84582.64;;;6.89;30.84
70437;BME280;57877;39.750;-104.894;2024-01-30T04:33:50;84582.39;;;7.11;30.49
70437;BME280;57877;39.750;-104.894;2024-01-30T04:36:15;84586.09;;;7.10;30.43
70437;BME280;57877;39.750;-104.894;2024-01-30T04:38:40;84585.02;;;6.84;30.50
70437;BME280;57877;39.750;-104.894;2024-01-30T04:41:06;84584.29;;;6.85;30.47
70437;BME280;57877;39.750;-104.894;2024-01-30T04:43:32;84584.48;;;7.11;30.41
70437;BME280;57877;39.750;-104.894;2024-01-30T04:45:58;84581.67;;;7.13;30.39
70437;BME280;57877;39.750;-104.894;2024-01-30T04:48:24;84581.91;;;6.48;30.57
70437;BME280;57877;39.750;-104.894;2024-01-30T04:50:49;84579.11;;;6.82;30.73
70437;BME280;57877;39.750;-104.894;2024-01-30T04:53:15;84575.95;;;6.80;30.97
70437;BME280;57877;39.750;-104.894;2024-01-30T04:55:41;84578.72;;;6.70;31.05
70437;BME280;57877;39.750;-104.894;2024-01-30T04:58:07;84579.60;;;6.41;31.45
70437;BME280;57877;39.750;-104.894;2024-01-30T05:00:33;84583.51;;;6.76;31.29
70437;BME280;57877;39.750;-104.894;2024-01-30T05:02:58;84584.25;;;6.20;31.83
70437;BME280;57877;39.750;-104.894;2024-01-30T05:05:23;84583.11;;;6.41;31.53
70437;BME280;57877;39.750;-104.894;2024-01-30T05:07:48;84584.58;;;6.54;31.35
70437;BME280;57877;39.750;-104.894;2024-01-30T05:10:13;84585.17;;;6.50;31.42
70437;BME280;57877;39.750;-104.894;2024-01-30T05:12:39;84586.47;;;6.62;31.63
70437;BME280;57877;39.750;-104.894;2024-01-30T05:15:04;84586.82;;;5.66;32.64
70437;BME280;57877;39.750;-104.894;2024-01-30T05:17:29;84584.93;;;4.45;34.88
70437;BME280;57877;39.750;-104.894;2024-01-30T05:19:54;84583.26;;;4.50;35.67
70437;BME280;57877;39.750;-104.894;2024-01-30T05:22:20;84580.46;;;4.01;36.06
70437;BME280;57877;39.750;-104.894;2024-01-30T05:24:45;84577.44;;;4.72;35.14
70437;BME280;57877;39.750;-104.894;2024-01-30T05:27:11;84575.39;;;4.82;34.55
70437;BME280;57877;39.750;-104.894;2024-01-30T05:29:36;84576.16;;;5.50;34.26
70437;BME280;57877;39.750;-104.894;2024-01-30T05:32:01;84571.96;;;4.29;35.28
70437;BME280;57877;39.750;-104.894;2024-01-30T05:34:26;84568.68;;;4.15;36.20
70437;BME280;57877;39.750;-104.894;2024-01-30T05:36:51;84570.15;;;3.19;37.67
70437;BME280;57877;39.750;-104.894;2024-01-30T05:39:16;84571.42;;;3.26;37.97
70437;BME280;57877;39.750;-104.894;2024-01-30T05:41:41;84567.10;;;3.03;38.88
70437;BME280;57877;39.750;-104.894;2024-01-30T05:44:06;84566.30;;;2.89;39.00
70437;BME280;57877;39.750;-104.894;2024-01-30T05:46:31;84564.07;;;3.36;37.88
70437;BME280;57877;39.750;-104.894;2024-01-30T05:48:56;84563.73;;;2.96;38.94
70437;BME280;57877;39.750;-104.894;2024-01-30T05:51:21;84564.15;;;3.48;38.32
70437;BME280;57877;39.750;-104.894;2024-01-30T05:53:46;84561.40;;;3.56;37.56
70437;BME280;57877;39.750;-104.894;2024-01-30T05:56:11;84560.46;;;3.45;38.26
70437;BME280;57877;39.750;-104.894;2024-01-30T05:58:36;84560.71;;;3.75;37.83
70437;BME280;57877;39.750;-104.894;2024-01-30T06:01:01;84562.15;;;3.01;38.86
70437;BME280;57877;39.750;-104.894;2024-01-30T06:03:26;84562.62;;;3.45;37.75
70437;BME280;57877;39.750;-104.894;2024-01-30T06:05:51;84562.05;;;4.16;36.39
70437;BME280;57877;39.750;-104.894;2024-01-30T06:08:17;84563.31;;;4.26;36.03
70437;BME280;57877;39.750;-104.894;2024-01-30T06:10:41;84561.74;;;4.46;35.80
70437;BME280;57877;39.750;-104.894;2024-01-30T06:13:06;84559.75;;;4.54;35.67
70437;BME280;57877;39.750;-104.894;2024-01-30T06:15:31;84555.96;;;4.54;35.51
70437;BME280;57877;39.750;-104.894;2024-01-30T06:17:57;84553.07;;;4.44;35.82
70437;BME280;57877;39.750;-104.894;2024-01-30T06:20:22;84548.25;;;4.06;36.10
70437;BME280;57877;39.750;-104.894;2024-01-30T06:22:47;84547.56;;;4.47;35.90
70437;BME280;57877;39.750;-104.894;2024-01-30T06:25:12;84546.53;;;4.40;35.93
70437;BME280;57877;39.750;-104.894;2024-01-30T06:27:37;84544.67;;;4.91;34.94
70437;BME280;57877;39.750;-104.894;2024-01-30T06:30:02;84544.36;;;3.82;36.33
70437;BME280;57877;39.750;-104.894;2024-01-30T06:32:27;84543.75;;;4.98;35.10
70437;BME280;57877;39.750;-104.894;2024-01-30T06:34:52;84541.88;;;4.20;36.15
70437;BME280;57877;39.750;-104.894;2024-01-30T06:37:17;84541.78;;;4.68;35.35
70437;BME280;57877;39.750;-104.894;2024-01-30T06:39:42;84537.10;;;4.07;36.19
70437;BME280;57877;39.750;-104.894;2024-01-30T06:42:07;84536.31;;;4.09;36.61
70437;BME280;57877;39.750;-104.894;2024-01-30T06:44:32;84536.30;;;3.94;36.79
70437;BME280;57877;39.750;-104.894;2024-01-30T06:46:57;84537.04;;;3.42;37.57
70437;BME280;57877;39.750;-104.894;2024-01-30T06:49:22;84533.94;;;3.36;37.97
70437;BME280;57877;39.750;-104.894;2024-01-30T06:51:47;84532.31;;;3.25;38.26
70437;BME280;57877;39.750;-104.894;2024-01-30T06:54:12;84531.98;;;3.50;38.15
70437;BME280;57877;39.750;-104.894;2024-01-30T06:56:37;84534.59;;;3.25;37.95
70437;BME280;57877;39.750;-104.894;2024-01-30T06:59:02;84532.47;;;3.41;37.44
70437;BME280;57877;39.750;-104.894;2024-01-30T07:01:29;84529.58;;;2.94;38.18
70437;BME280;57877;39.750;-104.894;2024-01-30T07:03:53;84530.11;;;2.67;39.46
70437;BME280;57877;39.750;-104.894;2024-01-30T07:06:18;84525.90;;;3.42;38.31
70437;BME280;57877;39.750;-104.894;2024-01-30T07:08:43;84526.29;;;3.18;37.91
70437;BME280;57877;39.750;-104.894;2024-01-30T07:11:08;84524.42;;;3.89;37.62
70437;BME280;57877;39.750;-104.894;2024-01-30T07:13:34;84520.60;;;3.11;38.58
70437;BME280;57877;39.750;-104.894;2024-01-30T07:15:58;84517.54;;;3.14;38.81
70437;BME280;57877;39.750;-104.894;2024-01-30T07:18:23;84517.87;;;3.76;37.84
70437;BME280;57877;39.750;-104.894;2024-01-30T07:20:48;84515.82;;;3.44;37.88
70437;BME280;57877;39.750;-104.894;2024-01-30T07:23:13;84515.69;;;3.55;37.34
70437;BME280;57877;39.750;-104.894;2024-01-30T07:25:38;84512.02;;;3.91;36.81
70437;BME280;57877;39.750;-104.894;2024-01-30T07:28:04;84511.40;;;3.37;37.09
70437;BME280;57877;39.750;-104.894;2024-01-30T07:30:28;84513.40;;;3.49;37.26
70437;BME280;57877;39.750;-104.894;2024-01-30T07:32:54;84512.12;;;3.39;37.36
70437;BME280;57877;39.750;-104.894;2024-01-30T07:35:20;84508.94;;;3.43;37.26
70437;BME280;57877;39.750;-104.894;2024-01-30T07:37:45;84506.45;;;3.76;37.07
70437;BME280;57877;39.750;-104.894;2024-01-30T07:40:11;84507.73;;;3.12;37.72
70437;BME280;57877;39.750;-104.894;2024-01-30T07:42:35;84503.51;;;3.08;38.49
70437;BME280;57877;39.750;-104.894;2024-01-30T07:45:01;84505.79;;;2.66;39.30
70437;BME280;57877;39.750;-104.894;2024-01-30T07:47:26;84504.32;;;2.15;40.24
70437;BME280;57877;39.750;-104.894;2024-01-30T07:49:51;84501.50;;;2.81;39.51
70437;BME280;57877;39.750;-104.894;2024-01-30T07:52:16;84499.87;;;2.50;39.90
70437;BME280;57877;39.750;-104.894;2024-01-30T07:54:48;84499.08;;;2.05;40.71
70437;BME280;57877;39.750;-104.894;2024-01-30T07:57:06;84498.96;;;2.83;39.81
70437;BME280;57877;39.750;-104.894;2024-01-30T07:59:31;84498.27;;;2.89;39.01
70437;BME280;57877;39.750;-104.894;2024-01-30T08:01:56;84495.90;;;2.73;38.26
70437;BME280;57877;39.750;-104.894;2024-01-30T08:04:21;84496.58;;;3.06;37.72
70437;BME280;57877;39.750;-104.894;2024-01-30T08:06:46;84489.76;;;3.08;37.34
70437;BME280;57877;39.750;-104.894;2024-01-30T08:09:11;84483.22;;;3.26;37.11
70437;BME280;57877;39.750;-104.894;2024-01-30T08:11:36;84477.32;;;3.26;36.88
70437;BME280;57877;39.750;-104.894;2024-01-30T08:14:01;84475.73;;;3.30;36.78
70437;BME280;57877;39.750;-104.894;2024-01-30T08:16:26;84475.21;;;3.26;36.80
70437;BME280;57877;39.750;-104.894;2024-01-30T08:18:51;84475.16;;;3.30;36.59
70437;BME280;57877;39.750;-104.894;2024-01-30T08:21:16;84475.46;;;3.20;36.72
70437;BME280;57877;39.750;-104.894;2024-01-30T08:23:42;84476.47;;;2.73;37.02
70437;BME280;57877;39.750;-104.894;2024-01-30T08:26:07;84476.76;;;2.81;37.28
70437;BME280;57877;39.750;-104.894;2024-01-30T08:28:32;84474.48;;;3.01;37.01
70437;BME280;57877;39.750;-104.894;2024-01-30T08:30:57;84469.16;;;2.95;37.06
70437;BME280;57877;39.750;-104.894;2024-01-30T08:33:22;84467.02;;;2.46;38.28
70437;BME280;57877;39.750;-104.894;2024-01-30T08:35:47;84467.76;;;2.33;38.41
70437;BME280;57877;39.750;-104.894;2024-01-30T08:38:13;84464.13;;;2.79;37.63
70437;BME280;57877;39.750;-104.894;2024-01-30T08:40:38;84466.52;;;2.38;39.08
70437;BME280;57877;39.750;-104.894;2024-01-30T08:43:03;84466.77;;;2.13;39.02
70437;BME280;57877;39.750;-104.894;2024-01-30T08:45:28;84467.45;;;2.33;39.17
70437;BME280;57877;39.750;-104.894;2024-01-30T08:47:53;84465.02;;;1.95;39.97
70437;BME280;57877;39.750;-104.894;2024-01-30T08:50:18;84464.66;;;1.42;40.04
70437;BME280;57877;39.750;-104.894;2024-01-30T08:52:43;84464.49;;;2.39;38.76
70437;BME280;57877;39.750;-104.894;2024-01-30T08:55:08;84463.17;;;2.39;39.20
70437;BME280;57877;39.750;-104.894;2024-01-30T08:57:33;84462.85;;;1.58;40.40
70437;BME280;57877;39.750;-104.894;2024-01-30T08:59:58;84460.00;;;1.90;40.08
70437;BME280;57877;39.750;-104.894;2024-01-30T09:02:23;84454.37;;;1.27;40.89
70437;BME280;57877;39.750;-104.894;2024-01-30T09:04:48;84447.90;;;1.32;40.74
70437;BME280;57877;39.750;-104.894;2024-01-30T09:07:13;84446.23;;;0.69;42.19
70437;BME280;57877;39.750;-104.894;2024-01-30T09:09:39;84443.62;;;0.15;43.68
70437;BME280;57877;39.750;-104.894;2024-01-30T09:12:04;84439.69;;;0.00;44.21
70437;BME280;57877;39.750;-104.894;2024-01-30T09:14:29;84435.13;;;-0.37;44.82
70437;BME280;57877;39.750;-104.894;2024-01-30T09:16:54;84430.93;;;0.45;44.31
70437;BME280;57877;39.750;-104.894;2024-01-30T09:19:19;84431.09;;;0.61;43.71
70437;BME280;57877;39.750;-104.894;2024-01-30T09:21:44;84427.78;;;1.81;41.32
70437;BME280;57877;39.750;-104.894;2024-01-30T09:24:09;84425.04;;;1.04;42.53
70437;BME280;57877;39.750;-104.894;2024-01-30T09:26:34;84423.38;;;1.25;42.59
70437;BME280;57877;39.750;-104.894;2024-01-30T09:28:59;84419.84;;;1.88;40.77
70437;BME280;57877;39.750;-104.894;2024-01-30T09:31:24;84416.87;;;2.13;40.69
70437;BME280;57877;39.750;-104.894;2024-01-30T09:33:49;84411.42;;;2.02;40.86
70437;BME280;57877;39.750;-104.894;2024-01-30T09:36:14;84405.50;;;1.52;41.48
70437;BME280;57877;39.750;-104.894;2024-01-30T09:38:39;84403.41;;;1.56;41.07
70437;BME280;57877;39.750;-104.894;2024-01-30T09:41:09;84399.58;;;1.18;41.52
70437;BME280;57877;39.750;-104.894;2024-01-30T09:43:33;84396.37;;;0.87;43.33
70437;BME280;57877;39.750;-104.894;2024-01-30T09:45:55;84392.89;;;1.34;41.74
70437;BME280;57877;39.750;-104.894;2024-01-30T09:48:20;84392.18;;;1.75;41.32
70437;BME280;57877;39.750;-104.894;2024-01-30T09:50:45;84390.65;;;1.82;41.08
70437;BME280;57877;39.750;-104.894;2024-01-30T09:53:10;84391.40;;;1.34;41.10
70437;BME280;57877;39.750;-104.894;2024-01-30T09:55:36;84390.73;;;2.08;40.24
70437;BME280;57877;39.750;-104.894;2024-01-30T09:58:00;84392.43;;;2.15;39.79
70437;BME280;57877;39.750;-104.894;2024-01-30T10:00:25;84390.67;;;2.70;39.02
70437;BME280;57877;39.750;-104.894;2024-01-30T10:02:50;84387.70;;;2.98;38.33
70437;BME280;57877;39.750;-104.894;2024-01-30T10:05:19;84382.73;;;2.88;37.87
70437;BME280;57877;39.750;-104.894;2024-01-30T10:10:06;84373.80;;;2.42;39.02
70437;BME280;57877;39.750;-104.894;2024-01-30T10:12:30;84370.31;;;2.24;38.96
70437;BME280;57877;39.750;-104.894;2024-01-30T10:14:57;84365.51;;;2.37;38.82
70437;BME280;57877;39.750;-104.894;2024-01-30T10:17:21;84366.59;;;2.18;39.34
70437;BME280;57877;39.750;-104.894;2024-01-30T10:19:46;84364.20;;;2.01;39.77
70437;BME280;57877;39.750;-104.894;2024-01-30T10:22:11;84362.55;;;2.47;38.94
70437;BME280;57877;39.750;-104.894;2024-01-30T10:24:36;84363.15;;;1.89;39.71
70437;BME280;57877;39.750;-104.894;2024-01-30T10:27:01;84359.65;;;1.86;40.09
70437;BME280;57877;39.750;-104.894;2024-01-30T10:29:27;84358.17;;;2.09;39.53
70437;BME280;57877;39.750;-104.894;2024-01-30T10:31:59;84356.99;;;1.69;40.50
70437;BME280;57877;39.750;-104.894;2024-01-30T10:34:16;84353.48;;;1.38;40.37
70437;BME280;57877;39.750;-104.894;2024-01-30T10:36:41;84353.25;;;2.04;39.76
70437;BME280;57877;39.750;-104.894;2024-01-30T10:39:07;84354.15;;;0.97;41.56
70437;BME280;57877;39.750;-104.894;2024-01-30T10:41:34;84351.20;;;0.73;41.80
70437;BME280;57877;39.750;-104.894;2024-01-30T10:44:02;84349.31;;;0.57;42.55
70437;BME280;57877;39.750;-104.894;2024-01-30T10:46:25;84349.53;;;0.41;43.67
70437;BME280;57877;39.750;-104.894;2024-01-30T10:48:54;84346.10;;;0.35;43.04
70437;BME280;57877;39.750;-104.894;2024-01-30T10:51:12;84344.83;;;1.32;41.92
70437;BME280;57877;39.750;-104.894;2024-01-30T10:53:37;84338.37;;;0.29;43.57
70437;BME280;57877;39.750;-104.894;2024-01-30T10:56:03;84337.23;;;0.60;42.97
70437;BME280;57877;39.750;-104.894;2024-01-30T10:58:27;84335.13;;;0.96;42.78
70437;BME280;57877;39.750;-104.894;2024-01-30T11:00:52;84332.49;;;0.34;43.51
70437;BME280;57877;39.750;-104.894;2024-01-30T11:03:18;84327.02;;;-0.15;44.30
70437;BME280;57877;39.750;-104.894;2024-01-30T11:05:42;84324.09;;;0.50;43.27
70437;BME280;57877;39.750;-104.894;2024-01-30T11:08:12;84322.94;;;-0.01;44.27
70437;BME280;57877;39.750;-104.894;2024-01-30T11:10:32;84326.47;;;1.03;43.12
70437;BME280;57877;39.750;-104.894;2024-01-30T11:12:57;84323.52;;;1.94;40.67
70437;BME280;57877;39.750;-104.894;2024-01-30T11:15:24;84325.74;;;2.00;40.15
70437;BME280;57877;39.750;-104.894;2024-01-30T11:17:51;84324.87;;;1.69;40.25
70437;BME280;57877;39.750;-104.894;2024-01-30T11:20:15;84323.84;;;1.85;40.34
70437;BME280;57877;39.750;-104.894;2024-01-30T11:22:37;84319.47;;;2.26;39.29
70437;BME280;57877;39.750;-104.894;2024-01-30T11:25:03;84318.47;;;1.59;39.70
70437;BME280;57877;39.750;-104.894;2024-01-30T11:27:28;84313.09;;;2.20;39.09
70437;BME280;57877;39.750;-104.894;2024-01-30T11:29:53;84307.91;;;2.30;38.94
70437;BME280;57877;39.750;-104.894;2024-01-30T11:32:22;84309.22;;;2.43;38.73
70437;BME280;57877;39.750;-104.894;2024-01-30T11:34:43;84313.12;;;1.35;39.70
70437;BME280;57877;39.750;-104.894;2024-01-30T11:37:10;84312.91;;;1.47;39.58
70437;BME280;57877;39.750;-104.894;2024-01-30T11:39:33;84307.40;;;2.48;38.39
70437;BME280;57877;39.750;-104.894;2024-01-30T11:41:59;84306.25;;;2.62;38.16
70437;BME280;57877;39.750;-104.894;2024-01-30T11:44:23;84304.88;;;2.51;38.40
70437;BME280;57877;39.750;-104.894;2024-01-30T11:46:49;84301.09;;;2.25;38.42
70437;BME280;57877;39.750;-104.894;2024-01-30T11:49:13;84302.36;;;2.16;38.69
70437;BME280;57877;39.750;-104.894;2024-01-30T11:51:39;84298.59;;;2.10;38.56
70437;BME280;57877;39.750;-104.894;2024-01-30T11:54:03;84298.85;;;2.49;38.66
70437;BME280;57877;39.750;-104.894;2024-01-30T11:56:28;84299.39;;;1.66;39.16
70437;BME280;57877;39.750;-104.894;2024-01-30T11:58:54;84297.34;;;2.18;39.23
70437;BME280;57877;39.750;-104.894;2024-01-30T12:01:19;84297.09;;;2.45;38.35
70437;BME280;57877;39.750;-104.894;2024-01-30T12:03:49;84299.97;;;1.73;39.32
70437;BME280;57877;39.750;-104.894;2024-01-30T12:06:09;84295.57;;;2.02;38.82
70437;BME280;57877;39.750;-104.894;2024-01-30T12:08:34;84292.57;;;2.27;38.41
70437;BME280;57877;39.750;-104.894;2024-01-30T12:10:59;84291.20;;;2.32;38.26
70437;BME280;57877;39.750;-104.894;2024-01-30T12:13:24;84289.34;;;2.49;37.72
70437;BME280;57877;39.750;-104.894;2024-01-30T12:15:49;84289.79;;;1.81;38.16
70437;BME280;57877;39.750;-104.894;2024-01-30T12:18:14;84284.63;;;1.87;38.65
70437;BME280;57877;39.750;-104.894;2024-01-30T12:20:39;84283.08;;;2.02;38.64
70437;BME280;57877;39.750;-104.894;2024-01-30T12:23:05;84283.13;;;1.58;39.22
70437;BME280;57877;39.750;-104.894;2024-01-30T12:25:30;84280.97;;;2.00;38.27
70437;BME280;57877;39.750;-104.894;2024-01-30T12:27:55;84281.40;;;1.98;38.53